Time;durP1;ratioP1;P1;durP2;ratioP2;P2;SDS_P1;SDS_P2;PMS_P1;PMS_P2;Temp;Humidity;BMP_temperature;BMP_pressure;BME280_temperature;BME280_humidity;BME280_pressure;Samples;Min_cycle;Max_cycle;Signal;HPM_P1;HPM_P2
2021/08/08 00:00:44;;;;;;;7.43;4.37;;;22.90;99.90;;;;;;6301804;28;20703;-64
2021/08/08 00:03:47;;;;;;;5.20;4.20;;;22.80;99.90;;;;;;6301810;28;20246;-64
2021/08/08 00:07:05;;;;;;;5.40;4.70;;;22.80;99.90;;;;;;6301301;28;20259;-64
2021/08/08 00:10:12;;;;;;;4.70;4.30;;;22.70;99.90;;;;;;6301620;28;20234;-64
2021/08/08 00:13:15;;;;;;;6.53;4.30;;;22.70;99.90;;;;;;6301161;28;20223;-64
2021/08/08 00:16:20;;;;;;;4.67;4.27;;;22.70;99.90;;;;;;6301311;28;20675;-64
2021/08/08 00:19:23;;;;;;;6.50;4.37;;;22.70;99.90;;;;;;6301074;28;20226;-64
2021/08/08 00:22:26;;;;;;;4.40;4.10;;;22.70;99.90;;;;;;6301208;28;20587;-64
2021/08/08 00:25:29;;;;;;;5.13;4.10;;;22.70;99.90;;;;;;6300872;28;20227;-64
2021/08/08 00:28:33;;;;;;;8.83;4.30;;;22.70;99.90;;;;;;6300679;28;20242;-65
2021/08/08 00:31:37;;;;;;;6.47;4.03;;;22.70;99.90;;;;;;6300973;28;20229;-66
2021/08/08 00:34:40;;;;;;;7.83;4.73;;;22.70;99.90;;;;;;6300011;28;20234;-65
2021/08/08 00:37:44;;;;;;;4.50;4.10;;;22.60;99.90;;;;;;6300877;28;20200;-65
2021/08/08 00:40:48;;;;;;;5.93;4.20;;;22.60;99.90;;;;;;6300819;28;20213;-65
2021/08/08 00:43:51;;;;;;;4.90;4.40;;;22.60;99.90;;;;;;6300952;28;20231;-65
2021/08/08 00:46:57;;;;;;;8.63;5.70;;;22.60;99.90;;;;;;6300576;28;20237;-65
2021/08/08 00:50:01;;;;;;;4.93;4.53;;;22.50;99.90;;;;;;6300950;28;20235;-65
2021/08/08 00:53:06;;;;;;;4.80;4.40;;;22.50;99.90;;;;;;6300322;28;20227;-65
2021/08/08 00:56:11;;;;;;;5.10;4.17;;;22.40;99.90;;;;;;6300745;28;20234;-63
2021/08/08 00:59:14;;;;;;;7.67;4.47;;;22.30;99.90;;;;;;6300411;28;20230;-65
2021/08/08 01:02:20;;;;;;;6.07;4.83;;;22.20;99.90;;;;;;6300359;28;20231;-65
2021/08/08 01:05:31;;;;;;;4.87;4.37;;;22.20;99.90;;;;;;6300074;28;20239;-66
2021/08/08 01:08:34;;;;;;;4.43;4.03;;;22.20;99.90;;;;;;6300476;28;20238;-65
2021/08/08 01:11:39;;;;;;;4.80;4.40;;;22.10;99.90;;;;;;6299728;28;20736;-63
2021/08/08 01:14:44;;;;;;;9.03;4.50;;;22.10;99.90;;;;;;6299925;28;20246;-63
2021/08/08 01:17:50;;;;;;;6.77;4.40;;;22.10;99.90;;;;;;6299945;28;20250;-64
2021/08/08 01:20:54;;;;;;;5.27;4.83;;;22.10;99.90;;;;;;6299757;28;20223;-63
2021/08/08 01:23:59;;;;;;;4.93;4.53;;;22.10;99.90;;;;;;6300078;28;20245;-64
2021/08/08 01:27:03;;;;;;;4.70;4.30;;;22.00;99.90;;;;;;6299870;28;20230;-64
2021/08/08 01:30:08;;;;;;;5.30;4.77;;;21.90;99.90;;;;;;6299694;28;20234;-64
2021/08/08 01:33:12;;;;;;;5.17;4.33;;;21.90;99.90;;;;;;6299471;28;20553;-64
2021/08/08 01:36:15;;;;;;;5.10;4.70;;;21.90;99.90;;;;;;6299632;28;20714;-64
2021/08/08 01:39:22;;;;;;;5.20;4.70;;;21.90;99.90;;;;;;6299597;28;20230;-64
2021/08/08 01:42:27;;;;;;;5.57;5.07;;;21.90;99.90;;;;;;6299489;28;20222;-64
2021/08/08 01:45:30;;;;;;;5.70;4.60;;;21.80;99.90;;;;;;6298763;28;20672;-64
2021/08/08 01:48:38;;;;;;;5.30;4.20;;;21.70;99.90;;;;;;6299516;28;20304;-64
2021/08/08 01:51:41;;;;;;;7.20;5.13;;;21.70;99.90;;;;;;6299054;28;20230;-64
2021/08/08 01:54:46;;;;;;;6.57;5.43;;;21.60;99.90;;;;;;6299353;28;20235;-64
2021/08/08 01:57:49;;;;;;;5.90;4.63;;;21.60;99.90;;;;;;6299287;28;20315;-64
2021/08/08 02:00:53;;;;;;;7.00;4.87;;;21.60;99.90;;;;;;6289276;28;20227;-64
2021/08/08 02:03:57;;;;;;;8.30;5.07;;;21.50;99.90;;;;;;6298676;28;20305;-64
2021/08/08 02:07:00;;;;;;;6.50;4.37;;;21.50;99.90;;;;;;6299010;28;20234;-65
2021/08/08 02:10:05;;;;;;;5.40;5.00;;;21.60;99.90;;;;;;6298859;28;20569;-65
2021/08/08 02:13:08;;;;;;;6.23;5.23;;;21.50;99.90;;;;;;6298961;28;20231;-65
2021/08/08 02:16:11;;;;;;;4.83;4.40;;;21.50;99.90;;;;;;6298573;28;20617;-64
2021/08/08 02:19:14;;;;;;;5.93;5.03;;;21.50;99.90;;;;;;6298810;28;20695;-65
2021/08/08 02:22:17;;;;;;;8.30;6.13;;;21.50;99.90;;;;;;6298640;28;20230;-65
2021/08/08 02:25:22;;;;;;;4.73;4.30;;;21.50;99.90;;;;;;6298160;28;20691;-65
2021/08/08 02:28:25;;;;;;;5.87;5.37;;;21.50;99.90;;;;;;6298277;28;20695;-65
2021/08/08 02:31:35;;;;;;;5.30;4.80;;;21.40;99.90;;;;;;6298148;28;20725;-65
2021/08/08 02:34:39;;;;;;;5.40;4.83;;;21.40;99.90;;;;;;6298465;28;20722;-64
2021/08/08 02:37:42;;;;;;;5.20;4.70;;;21.40;99.90;;;;;;6298839;28;20213;-65
2021/08/08 02:40:46;;;;;;;4.90;4.40;;;21.40;99.90;;;;;;6298293;28;20529;-65
2021/08/08 02:43:49;;;;;;;4.93;4.53;;;21.30;99.90;;;;;;6298832;28;20219;-64
2021/08/08 02:46:52;;;;;;;4.60;4.10;;;21.30;99.90;;;;;;6298982;28;20213;-64
2021/08/08 02:49:56;;;;;;;4.67;4.30;;;21.40;99.90;;;;;;6298466;28;20676;-64
2021/08/08 02:52:59;;;;;;;5.83;4.10;;;21.40;99.90;;;;;;6298681;28;20231;-65
2021/08/08 02:56:04;;;;;;;5.93;4.53;;;21.40;99.90;;;;;;6298285;28;20237;-64
2021/08/08 02:59:07;;;;;;;5.03;4.57;;;21.40;99.90;;;;;;6302193;28;20230;-65
2021/08/08 03:02:10;;;;;;;5.10;4.60;;;21.30;99.90;;;;;;6294010;28;20257;-64
2021/08/08 03:05:14;;;;;;;5.00;4.50;;;21.40;99.90;;;;;;6303170;28;20234;-65
2021/08/08 03:08:17;;;;;;;4.70;4.30;;;21.40;99.90;;;;;;6303082;28;20239;-65
2021/08/08 03:11:21;;;;;;;4.63;4.23;;;21.40;99.90;;;;;;6302560;28;20694;-65
2021/08/08 03:14:24;;;;;;;3.77;3.47;;;21.40;99.90;;;;;;6302630;28;20246;-65
2021/08/08 03:17:28;;;;;;;5.20;3.53;;;21.50;99.90;;;;;;6302755;28;20223;-65
2021/08/08 03:20:31;;;;;;;4.30;4.00;;;21.50;99.90;;;;;;6302594;28;20713;-64
2021/08/08 03:23:35;;;;;;;4.07;3.77;;;21.60;99.90;;;;;;6300972;28;20234;-65
2021/08/08 03:26:40;;;;;;;6.97;4.27;;;21.60;99.90;;;;;;6303535;28;20672;-67
2021/08/08 03:29:43;;;;;;;6.10;4.30;;;21.60;99.90;;;;;;6302362;28;20300;-68
2021/08/08 03:32:47;;;;;;;5.13;4.60;;;21.50;99.90;;;;;;6302716;28;20575;-67
2021/08/08 03:35:50;;;;;;;5.37;3.83;;;21.60;99.90;;;;;;6302513;28;20718;-68
2021/08/08 03:38:54;;;;;;;4.73;4.23;;;21.60;99.90;;;;;;6302607;28;20250;-68
2021/08/08 03:41:58;;;;;;;4.70;4.30;;;21.60;99.90;;;;;;6302516;28;20660;-68
2021/08/08 03:45:02;;;;;;;4.77;3.60;;;21.50;99.90;;;;;;6302030;28;20699;-68
2021/08/08 03:48:05;;;;;;;5.80;3.80;;;21.50;99.90;;;;;;6302312;28;20226;-69
2021/08/08 03:51:09;;;;;;;6.20;4.30;;;21.50;99.90;;;;;;6302079;28;20272;-68
2021/08/08 03:54:12;;;;;;;5.63;3.90;;;21.50;99.90;;;;;;6302029;28;20227;-68
2021/08/08 03:57:16;;;;;;;4.97;4.30;;;21.50;99.90;;;;;;6300747;28;20710;-70
2021/08/08 04:00:20;;;;;;;5.80;4.00;;;21.60;99.90;;;;;;6301051;28;20233;-67
2021/08/08 04:03:23;;;;;;;5.13;4.00;;;21.50;99.90;;;;;;6300479;28;20230;-67
2021/08/08 04:06:26;;;;;;;4.90;4.40;;;21.60;99.90;;;;;;6296987;28;20241;-68
2021/08/08 04:09:29;;;;;;;4.67;4.20;;;21.60;99.90;;;;;;6301438;28;20234;-68
2021/08/08 04:12:34;;;;;;;4.90;4.40;;;21.60;99.90;;;;;;6301438;28;20226;-69
2021/08/08 04:15:37;;;;;;;4.53;4.13;;;21.60;99.90;;;;;;6300906;28;20231;-68
2021/08/08 04:18:40;;;;;;;4.70;4.30;;;21.50;99.90;;;;;;6301576;28;20233;-68
2021/08/08 04:21:43;;;;;;;5.60;3.80;;;21.60;99.90;;;;;;6300984;28;20230;-68
2021/08/08 04:24:46;;;;;;;6.17;4.43;;;21.60;99.90;;;;;;6301386;28;20234;-67
2021/08/08 04:27:51;;;;;;;5.13;4.30;;;21.60;99.90;;;;;;6300679;28;20243;-67
2021/08/08 04:30:55;;;;;;;5.03;3.97;;;21.60;99.90;;;;;;6300624;28;20235;-67
2021/08/08 04:33:58;;;;;;;4.53;4.00;;;21.70;99.90;;;;;;6300377;28;20231;-68
2021/08/08 04:37:01;;;;;;;4.60;4.20;;;21.70;99.90;;;;;;6300304;28;20231;-69
2021/08/08 04:40:06;;;;;;;4.80;4.30;;;21.70;99.90;;;;;;6300771;28;20238;-67
2021/08/08 04:43:10;;;;;;;4.33;3.93;;;21.80;99.90;;;;;;6300156;28;20237;-67
2021/08/08 04:46:13;;;;;;;4.50;4.10;;;21.80;99.90;;;;;;6300516;28;20722;-68
2021/08/08 04:49:17;;;;;;;3.93;3.60;;;21.90;99.90;;;;;;6300227;28;20235;-67
2021/08/08 04:52:20;;;;;;;4.20;3.80;;;21.90;99.90;;;;;;6300347;28;20243;-68
2021/08/08 04:55:23;;;;;;;4.03;3.63;;;22.00;99.90;;;;;;6300035;28;20234;-68
2021/08/08 04:58:27;;;;;;;4.80;4.40;;;22.00;99.90;;;;;;6300337;28;20230;-68
2021/08/08 05:01:31;;;;;;;5.10;3.43;;;22.10;99.90;;;;;;6300084;28;20227;-68
2021/08/08 05:04:34;;;;;;;3.80;3.50;;;22.10;99.90;;;;;;6300177;28;20688;-68
2021/08/08 05:07:39;;;;;;;3.30;3.10;;;22.20;99.90;;;;;;6295258;28;20207;-67
2021/08/08 05:10:42;;;;;;;4.37;3.80;;;22.30;99.90;;;;;;6299535;28;20643;-68
2021/08/08 05:13:47;;;;;;;3.77;3.40;;;22.30;99.90;;;;;;6299364;28;20652;-68
2021/08/08 05:16:50;;;;;;;3.73;3.43;;;22.40;99.90;;;;;;6299447;28;20250;-67
2021/08/08 05:19:53;;;;;;;6.03;4.57;;;22.50;99.90;;;;;;6299612;28;20203;-68
2021/08/08 05:22:56;;;;;;;5.87;3.90;;;22.60;99.90;;;;;;6299452;28;20664;-68
2021/08/08 05:25:59;;;;;;;4.73;4.33;;;22.60;99.90;;;;;;6300134;28;20246;-68
2021/08/08 05:29:04;;;;;;;4.23;3.83;;;22.70;99.90;;;;;;6299815;28;20241;-68
2021/08/08 05:32:08;;;;;;;3.40;3.10;;;22.90;99.90;;;;;;6299645;28;20238;-68
2021/08/08 05:35:12;;;;;;;4.80;3.20;;;23.10;99.90;;;;;;6299102;28;20261;-68
2021/08/08 05:38:15;;;;;;;4.13;3.30;;;23.30;99.90;;;;;;6299530;28;20230;-68
2021/08/08 05:41:18;;;;;;;3.80;3.50;;;23.40;99.20;;;;;;6299265;28;20227;-68
2021/08/08 05:44:23;;;;;;;10.30;3.67;;;23.60;98.80;;;;;;6299513;28;20231;-68
2021/08/08 05:47:26;;;;;;;3.57;3.27;;;23.80;98.50;;;;;;6299352;28;20223;-70
2021/08/08 05:50:29;;;;;;;3.80;3.00;;;24.10;98.10;;;;;;6299586;28;20235;-69
2021/08/08 05:53:32;;;;;;;3.93;2.70;;;24.40;97.70;;;;;;6299285;28;20239;-69
2021/08/08 05:56:35;;;;;;;3.27;2.73;;;24.80;96.40;;;;;;6299198;28;20234;-69
2021/08/08 05:59:40;;;;;;;3.40;3.10;;;25.20;95.60;;;;;;6299502;28;20231;-68
2021/08/08 06:02:43;;;;;;;3.90;3.60;;;25.40;95.10;;;;;;6299254;28;20245;-68
2021/08/08 06:05:46;;;;;;;3.67;3.13;;;25.80;94.60;;;;;;6299243;28;20230;-68
2021/08/08 06:08:49;;;;;;;3.37;3.07;;;26.30;93.50;;;;;;6299116;28;20234;-67
2021/08/08 06:11:52;;;;;;;5.30;3.10;;;26.40;92.40;;;;;;6289450;28;20311;-67
2021/08/08 06:14:57;;;;;;;3.00;2.70;;;26.50;92.10;;;;;;6298333;28;20537;-67
2021/08/08 06:18:00;;;;;;;3.20;2.40;;;26.40;91.60;;;;;;6299255;28;20233;-68
2021/08/08 06:21:03;;;;;;;3.10;2.90;;;26.20;91.20;;;;;;6298974;28;20240;-69
2021/08/08 06:24:06;;;;;;;2.40;2.20;;;26.50;91.20;;;;;;6299103;28;20234;-68
2021/08/08 06:27:09;;;;;;;2.90;2.60;;;26.50;90.20;;;;;;6299103;28;20226;-67
2021/08/08 06:30:14;;;;;;;3.47;2.70;;;26.40;90.00;;;;;;6298871;28;20692;-69
2021/08/08 06:33:17;;;;;;;3.10;2.53;;;25.80;90.90;;;;;;6302844;28;20604;-68
2021/08/08 06:36:21;;;;;;;2.80;2.60;;;25.50;91.60;;;;;;6303407;28;20683;-68
2021/08/08 06:39:24;;;;;;;3.37;2.23;;;25.30;91.70;;;;;;6303818;28;20230;-68
2021/08/08 06:42:27;;;;;;;3.70;2.53;;;25.10;92.10;;;;;;6303528;28;20230;-68
2021/08/08 06:45:32;;;;;;;2.70;2.50;;;24.80;93.00;;;;;;6303337;28;20230;-68
2021/08/08 06:48:35;;;;;;;2.87;2.50;;;24.50;93.50;;;;;;6303139;28;20235;-67
2021/08/08 06:51:38;;;;;;;3.93;3.27;;;24.40;94.20;;;;;;6303199;28;20618;-67
2021/08/08 06:54:41;;;;;;;3.47;3.17;;;24.40;94.60;;;;;;6302868;28;20548;-68
2021/08/08 06:57:44;;;;;;;3.50;3.20;;;24.30;94.50;;;;;;6303007;28;20606;-68
2021/08/08 07:00:49;;;;;;;3.30;3.00;;;24.40;94.60;;;;;;6302777;28;20315;-67
2021/08/08 07:03:52;;;;;;;2.67;2.47;;;24.30;94.90;;;;;;6303118;28;20296;-67
2021/08/08 07:06:55;;;;;;;3.40;3.10;;;24.10;95.10;;;;;;6302728;28;20231;-68
2021/08/08 07:09:58;;;;;;;2.87;2.67;;;24.30;95.30;;;;;;6302866;28;20231;-68
2021/08/08 07:13:02;;;;;;;3.10;2.80;;;24.30;95.00;;;;;;6302740;28;20260;-69
2021/08/08 07:16:07;;;;;;;3.77;2.90;;;24.40;95.00;;;;;;6302541;28;20254;-68
2021/08/08 07:19:10;;;;;;;2.63;2.43;;;24.40;94.30;;;;;;6302891;28;20223;-68
2021/08/08 07:22:15;;;;;;;3.10;2.90;;;24.40;94.30;;;;;;6302509;28;20233;-69
2021/08/08 07:25:18;;;;;;;2.50;2.30;;;24.40;94.10;;;;;;6302564;28;20676;-68
2021/08/08 07:28:21;;;;;;;2.67;2.37;;;24.30;94.30;;;;;;6302105;28;20223;-68
2021/08/08 07:31:26;;;;;;;2.93;2.50;;;24.20;94.50;;;;;;6302834;28;20234;-68
2021/08/08 07:34:29;;;;;;;3.30;2.70;;;24.20;94.50;;;;;;6302100;28;20588;-67
2021/08/08 07:37:32;;;;;;;2.83;2.63;;;24.20;94.50;;;;;;6302384;28;20576;-68
2021/08/08 07:40:36;;;;;;;3.63;2.77;;;24.10;94.70;;;;;;6302421;28;20242;-67
2021/08/08 07:43:40;;;;;;;3.17;2.87;;;24.10;95.00;;;;;;6301435;28;20241;-68
2021/08/08 07:46:44;;;;;;;3.83;3.00;;;24.00;94.90;;;;;;6302152;28;20199;-68
2021/08/08 07:49:47;;;;;;;2.53;2.33;;;23.90;95.80;;;;;;6302392;28;20489;-69
2021/08/08 07:52:50;;;;;;;2.97;2.77;;;23.90;95.50;;;;;;6301912;28;20207;-67
2021/08/08 07:55:55;;;;;;;2.70;2.50;;;24.00;95.40;;;;;;6302132;28;20222;-68
2021/08/08 07:58:58;;;;;;;3.20;2.90;;;24.00;95.60;;;;;;6302073;28;20227;-67
2021/08/08 08:02:03;;;;;;;3.17;2.97;;;24.00;95.60;;;;;;6301897;28;20234;-69
2021/08/08 08:05:07;;;;;;;3.00;2.80;;;24.00;95.60;;;;;;6302245;28;20229;-68
2021/08/08 08:08:13;;;;;;;3.90;2.70;;;24.00;95.50;;;;;;6301349;28;20565;-67
2021/08/08 08:11:17;;;;;;;3.20;2.90;;;24.10;95.40;;;;;;6301797;28;20231;-68
2021/08/08 08:14:21;;;;;;;2.67;2.47;;;24.20;95.50;;;;;;6300882;28;20687;-67
2021/08/08 08:17:25;;;;;;;3.20;3.00;;;24.30;95.30;;;;;;6296837;28;20581;-68
2021/08/08 08:20:28;;;;;;;3.43;2.80;;;24.40;95.20;;;;;;6301270;28;20238;-68
2021/08/08 08:23:32;;;;;;;3.10;2.80;;;24.40;95.10;;;;;;6301215;28;20707;-67
2021/08/08 08:26:35;;;;;;;4.77;2.50;;;24.50;95.00;;;;;;6300912;28;20571;-68
2021/08/08 08:29:39;;;;;;;3.07;2.87;;;24.60;94.90;;;;;;6301378;28;20235;-69
2021/08/08 08:32:43;;;;;;;2.97;2.70;;;24.70;94.50;;;;;;6300842;28;20222;-68
2021/08/08 08:35:46;;;;;;;3.30;2.83;;;24.80;94.20;;;;;;6300800;28;20223;-69
2021/08/08 08:38:50;;;;;;;2.80;2.60;;;24.90;94.00;;;;;;6300909;28;20556;-70
2021/08/08 08:41:57;;;;;;;2.97;2.77;;;24.90;93.60;;;;;;6300909;28;20222;-68
2021/08/08 08:45:00;;;;;;;2.93;2.70;;;24.90;93.40;;;;;;6300641;28;20238;-67
2021/08/08 08:48:05;;;;;;;3.40;2.77;;;25.00;93.30;;;;;;6300514;28;20226;-67
2021/08/08 08:51:10;;;;;;;3.07;2.77;;;25.00;93.40;;;;;;6300581;28;20234;-66
2021/08/08 08:54:13;;;;;;;2.87;2.67;;;25.00;93.90;;;;;;6299924;28;20263;-67
2021/08/08 08:57:17;;;;;;;3.63;2.90;;;24.60;94.70;;;;;;6299903;28;20227;-68
2021/08/08 09:00:26;;;;;;;3.00;2.80;;;24.60;94.80;;;;;;6300012;28;20235;-68
2021/08/08 09:03:31;;;;;;;3.10;2.80;;;24.50;95.00;;;;;;6300391;28;20305;-68
2021/08/08 09:06:34;;;;;;;3.17;2.70;;;24.70;94.80;;;;;;6299993;28;20233;-67
2021/08/08 09:09:39;;;;;;;3.17;2.80;;;24.90;94.00;;;;;;6300279;28;20376;-66
2021/08/08 09:12:42;;;;;;;3.40;3.10;;;25.00;93.80;;;;;;6300261;28;20602;-64
2021/08/08 09:15:45;;;;;;;3.70;2.60;;;25.10;93.40;;;;;;6299910;28;20245;-64
2021/08/08 09:18:51;;;;;;;2.80;2.33;;;25.30;93.30;;;;;;6299955;28;20226;-65
2021/08/08 09:21:55;;;;;;;2.67;2.47;;;25.70;92.20;;;;;;6300385;28;20304;-65
2021/08/08 09:24:59;;;;;;;2.77;2.57;;;26.10;91.30;;;;;;6295126;28;20702;-69
2021/08/08 09:28:10;;;;;;;4.50;3.10;;;26.40;91.00;;;;;;6300187;28;20253;-68
2021/08/08 09:31:20;;;;;;;2.90;2.13;;;27.00;89.20;;;;;;6299428;28;20573;-69
2021/08/08 09:34:26;;;;;;;2.57;2.37;;;27.20;88.30;;;;;;6299728;28;20237;-69
2021/08/08 09:37:30;;;;;;;2.57;2.37;;;27.40;86.10;;;;;;6299317;28;20700;-68
2021/08/08 09:40:33;;;;;;;2.57;2.37;;;27.40;85.40;;;;;;6299526;28;20230;-69
2021/08/08 09:43:37;;;;;;;3.30;3.00;;;27.60;85.20;;;;;;6299168;28;20315;-66
2021/08/08 09:46:40;;;;;;;2.63;2.43;;;27.70;84.50;;;;;;6299708;28;20213;-68
2021/08/08 09:49:44;;;;;;;3.17;2.87;;;28.10;83.20;;;;;;6299707;28;20213;-68
2021/08/08 09:52:52;;;;;;;2.70;2.50;;;28.40;81.40;;;;;;6299371;28;20217;-68
2021/08/08 09:55:55;;;;;;;2.40;2.20;;;28.40;80.80;;;;;;6299254;28;20229;-68
2021/08/08 09:59:05;;;;;;;5.80;2.53;;;28.20;79.20;;;;;;6299208;28;20237;-69
2021/08/08 10:02:10;;;;;;;2.70;2.50;;;28.30;79.90;;;;;;6299205;28;20701;-68
2021/08/08 10:05:15;;;;;;;5.70;4.40;;;28.70;77.40;;;;;;6298789;28;20241;-69
2021/08/08 10:08:22;;;;;;;3.70;3.40;;;28.80;76.00;;;;;;6298674;28;20264;-68
2021/08/08 10:11:26;;;;;;;4.67;2.40;;;28.70;77.20;;;;;;6299063;28;20222;-68
2021/08/08 10:14:30;;;;;;;3.17;2.50;;;29.20;76.10;;;;;;6298606;28;20237;-68
2021/08/08 10:17:35;;;;;;;3.17;2.00;;;29.30;73.90;;;;;;6298990;28;20375;-68
2021/08/08 10:20:40;;;;;;;2.37;2.20;;;29.60;73.80;;;;;;6299177;28;20226;-69
2021/08/08 10:23:45;;;;;;;2.57;2.37;;;29.90;71.70;;;;;;6294258;28;20257;-70
2021/08/08 10:26:48;;;;;;;2.43;2.17;;;29.70;71.70;;;;;;6299067;28;20238;-67
2021/08/08 10:29:53;;;;;;;1.57;1.47;;;29.70;71.40;;;;;;6298489;28;20623;-67
2021/08/08 10:32:56;;;;;;;2.60;1.90;;;29.60;70.80;;;;;;6298662;28;20225;-67
2021/08/08 10:36:00;;;;;;;2.73;2.30;;;29.30;71.10;;;;;;6298651;28;20230;-68
2021/08/08 10:39:10;;;;;;;2.07;1.87;;;28.90;71.90;;;;;;6298842;28;20301;-69
2021/08/08 10:42:13;;;;;;;2.63;2.27;;;28.80;72.70;;;;;;6298544;28;20230;-68
2021/08/08 10:45:24;;;;;;;2.43;2.23;;;28.30;73.70;;;;;;6298747;28;20240;-72
2021/08/08 10:48:33;;;;;;;4.30;2.07;;;27.90;74.50;;;;;;6298445;28;20241;-69
2021/08/08 10:51:37;;;;;;;4.20;2.30;;;27.50;75.50;;;;;;6298754;28;20234;-67
2021/08/08 10:54:42;;;;;;;2.50;1.80;;;27.10;77.00;;;;;;6298321;28;20287;-68
2021/08/08 10:57:45;;;;;;;3.10;2.00;;;26.90;78.60;;;;;;6298669;28;20230;-68
2021/08/08 11:00:48;;;;;;;1.47;1.37;;;26.90;79.20;;;;;;6298745;28;20231;-68
2021/08/08 11:03:53;;;;;;;2.33;1.77;;;26.90;78.60;;;;;;6298344;28;20240;-67
2021/08/08 11:06:58;;;;;;;1.83;1.73;;;26.80;79.10;;;;;;6298466;28;20291;-68
2021/08/08 11:10:01;;;;;;;2.03;1.87;;;26.80;80.10;;;;;;6297911;28;20590;-68
2021/08/08 11:13:04;;;;;;;1.80;1.70;;;26.70;80.00;;;;;;6298249;28;20241;-68
2021/08/08 11:16:14;;;;;;;2.27;2.07;;;26.50;79.90;;;;;;6297590;28;20253;-67
2021/08/08 11:19:17;;;;;;;2.60;2.40;;;26.40;81.30;;;;;;6299883;28;20621;-68
2021/08/08 11:22:23;;;;;;;2.60;2.23;;;26.20;81.80;;;;;;6301255;28;20709;-67
2021/08/08 11:25:26;;;;;;;4.10;2.10;;;26.10;82.50;;;;;;6302954;28;20241;-68
2021/08/08 11:28:30;;;;;;;3.07;2.10;;;26.10;83.40;;;;;;6297912;28;20231;-68
2021/08/08 11:31:34;;;;;;;1.73;1.63;;;25.90;83.60;;;;;;6302171;28;20230;-68
2021/08/08 11:34:38;;;;;;;2.00;1.90;;;25.60;83.40;;;;;;6301151;28;20241;-66
2021/08/08 11:37:44;;;;;;;2.20;2.00;;;25.50;84.40;;;;;;6302617;28;20215;-69
2021/08/08 11:40:48;;;;;;;2.40;2.20;;;25.40;85.40;;;;;;6302323;28;20202;-68
2021/08/08 11:44:05;;;;;;;1.87;1.77;;;25.30;86.30;;;;;;6302061;28;20683;-69
2021/08/08 11:47:10;;;;;;;2.90;2.13;;;25.30;86.80;;;;;;6301960;28;20253;-68
2021/08/08 11:50:13;;;;;;;2.47;2.27;;;25.10;87.10;;;;;;6301943;28;20705;-67
2021/08/08 11:53:17;;;;;;;2.47;2.27;;;25.10;87.90;;;;;;6301791;28;20227;-68
2021/08/08 11:56:24;;;;;;;2.80;2.27;;;24.90;88.20;;;;;;6301854;28;20238;-68
2021/08/08 11:59:29;;;;;;;1.90;1.80;;;24.80;88.50;;;;;;6301763;28;20235;-67
2021/08/08 12:02:33;;;;;;;3.10;1.90;;;24.70;89.40;;;;;;6301952;28;20234;-68
2021/08/08 12:05:39;;;;;;;2.67;2.40;;;24.60;89.70;;;;;;6302297;28;20288;-70
2021/08/08 12:08:44;;;;;;;2.77;2.00;;;24.60;90.00;;;;;;6301740;28;20230;-68
2021/08/08 12:11:51;;;;;;;2.40;2.20;;;24.50;90.00;;;;;;6301576;28;20245;-68
2021/08/08 12:14:57;;;;;;;2.63;2.43;;;24.50;90.50;;;;;;6301163;28;20243;-67
2021/08/08 12:18:01;;;;;;;2.50;2.30;;;24.40;91.10;;;;;;6301220;28;20591;-67
2021/08/08 12:21:15;;;;;;;2.87;1.83;;;24.40;91.30;;;;;;6300990;28;20714;-67
2021/08/08 12:24:20;;;;;;;3.30;2.07;;;24.40;91.50;;;;;;6301063;28;20230;-67
2021/08/08 12:27:31;;;;;;;2.67;2.33;;;24.50;91.50;;;;;;6300873;28;20234;-66
2021/08/08 12:30:35;;;;;;;2.80;2.60;;;24.50;91.70;;;;;;6301199;28;20231;-68
2021/08/08 12:33:39;;;;;;;2.77;2.57;;;24.50;92.10;;;;;;6291390;28;20234;-68
2021/08/08 12:36:44;;;;;;;2.80;2.60;;;24.40;92.30;;;;;;6301104;28;20227;-67
2021/08/08 12:39:48;;;;;;;2.07;1.97;;;24.40;92.60;;;;;;6300788;28;20230;-67
2021/08/08 12:43:02;;;;;;;4.73;2.10;;;24.30;92.80;;;;;;6300664;28;20226;-67
2021/08/08 12:46:10;;;;;;;2.37;2.17;;;24.20;92.80;;;;;;6300779;28;20695;-68
2021/08/08 12:49:13;;;;;;;2.83;2.57;;;24.20;93.00;;;;;;6301140;28;20308;-68
2021/08/08 12:52:17;;;;;;;2.57;2.37;;;24.10;93.30;;;;;;6300140;28;20233;-69
2021/08/08 12:55:21;;;;;;;2.90;2.70;;;24.10;93.40;;;;;;6300644;28;20588;-69
2021/08/08 12:58:25;;;;;;;2.80;2.60;;;24.00;93.50;;;;;;6299681;28;20238;-68
2021/08/08 13:01:30;;;;;;;3.20;2.67;;;24.00;93.70;;;;;;6300206;28;20316;-70
2021/08/08 13:04:33;;;;;;;2.30;2.10;;;23.90;93.90;;;;;;6300097;28;20797;-70
2021/08/08 13:07:36;;;;;;;3.33;2.57;;;24.00;94.00;;;;;;6300107;28;20223;-68
2021/08/08 13:10:41;;;;;;;2.77;2.57;;;24.10;94.10;;;;;;6299552;28;20237;-71
2021/08/08 13:13:44;;;;;;;2.77;2.57;;;24.10;94.20;;;;;;6299772;28;20559;-70
2021/08/08 13:16:47;;;;;;;3.47;3.20;;;24.20;94.10;;;;;;6299546;28;20230;-69
2021/08/08 13:19:51;;;;;;;4.00;2.60;;;24.30;93.90;;;;;;6299468;28;20656;-68
2021/08/08 13:22:54;;;;;;;3.40;3.10;;;24.60;93.30;;;;;;6299690;28;20577;-69
2021/08/08 13:25:59;;;;;;;3.07;2.70;;;24.90;92.80;;;;;;6299614;28;20199;-68
2021/08/08 13:29:02;;;;;;;2.53;2.33;;;24.90;92.30;;;;;;6299952;28;20230;-69
2021/08/08 13:32:06;;;;;;;2.63;2.43;;;24.80;91.90;;;;;;6299133;28;20230;-67
2021/08/08 13:35:10;;;;;;;2.80;2.47;;;24.70;91.60;;;;;;6299969;28;20245;-69
2021/08/08 13:38:13;;;;;;;2.73;2.50;;;24.70;91.90;;;;;;6298826;28;20234;-67
2021/08/08 13:41:17;;;;;;;3.70;2.03;;;24.60;92.40;;;;;;6299774;28;20235;-68
2021/08/08 13:44:20;;;;;;;2.80;1.90;;;24.60;92.20;;;;;;6299126;28;20242;-67
2021/08/08 13:47:24;;;;;;;2.87;2.67;;;24.50;92.10;;;;;;6299463;28;20235;-67
2021/08/08 13:50:27;;;;;;;2.70;2.13;;;24.40;92.00;;;;;;6298878;28;20242;-66
2021/08/08 13:53:30;;;;;;;2.73;2.23;;;24.40;92.40;;;;;;6299370;28;20244;-66
2021/08/08 13:56:35;;;;;;;2.97;2.73;;;24.40;92.60;;;;;;6299041;28;20680;-67
2021/08/08 13:59:38;;;;;;;3.40;3.10;;;24.60;92.50;;;;;;6298975;28;20226;-66
2021/08/08 14:02:42;;;;;;;2.77;2.13;;;24.70;92.30;;;;;;6299335;28;20660;-68
2021/08/08 14:05:45;;;;;;;2.73;2.50;;;24.70;92.00;;;;;;6298812;28;20234;-67
2021/08/08 14:08:49;;;;;;;2.87;2.43;;;24.60;92.20;;;;;;6299372;28;20237;-68
2021/08/08 14:11:57;;;;;;;3.60;2.43;;;24.50;92.20;;;;;;6298927;28;20235;-66
2021/08/08 14:15:01;;;;;;;3.07;2.60;;;24.40;92.60;;;;;;6298734;28;20695;-67
2021/08/08 14:18:05;;;;;;;3.60;3.23;;;24.30;92.80;;;;;;6298847;28;20222;-68
2021/08/08 14:21:08;;;;;;;2.30;2.10;;;24.20;93.10;;;;;;6298947;28;20325;-68
2021/08/08 14:24:11;;;;;;;3.10;2.80;;;24.10;92.80;;;;;;6298481;28;20307;-67
2021/08/08 14:27:16;;;;;;;2.40;2.20;;;24.10;93.00;;;;;;6298387;28;20281;-68
2021/08/08 14:30:19;;;;;;;3.00;2.50;;;24.10;93.10;;;;;;6298511;28;20227;-68
2021/08/08 14:33:23;;;;;;;3.07;2.83;;;24.00;93.20;;;;;;6298843;28;20235;-67
2021/08/08 14:36:26;;;;;;;2.73;2.37;;;24.00;93.40;;;;;;6293949;28;20242;-68
2021/08/08 14:39:29;;;;;;;3.53;2.57;;;23.80;93.80;;;;;;6298786;28;20731;-69
2021/08/08 14:42:34;;;;;;;4.20;3.10;;;23.80;93.80;;;;;;6298615;28;20253;-68
2021/08/08 14:45:37;;;;;;;2.60;2.40;;;23.70;93.50;;;;;;6298757;28;20314;-70
2021/08/08 14:48:40;;;;;;;2.20;2.00;;;23.60;93.70;;;;;;6298565;28;20256;-68
2021/08/08 14:51:44;;;;;;;3.07;2.40;;;23.50;94.20;;;;;;6296252;28;20234;-70
2021/08/08 14:54:47;;;;;;;2.40;2.10;;;23.60;93.90;;;;;;6300088;28;20231;-68
2021/08/08 14:57:52;;;;;;;3.87;2.17;;;23.70;94.00;;;;;;6302747;28;20227;-68
2021/08/08 15:00:55;;;;;;;2.63;2.10;;;23.80;93.70;;;;;;6301927;28;20240;-68
2021/08/08 15:03:58;;;;;;;4.70;2.10;;;23.90;93.50;;;;;;6302676;28;20245;-68
2021/08/08 15:07:01;;;;;;;4.27;2.67;;;24.00;93.50;;;;;;6303101;28;20226;-69
2021/08/08 15:10:05;;;;;;;2.23;1.93;;;24.10;93.40;;;;;;6302505;28;20237;-68
2021/08/08 15:13:10;;;;;;;2.20;2.03;;;24.00;93.50;;;;;;6302365;28;20241;-69
2021/08/08 15:16:13;;;;;;;6.50;2.03;;;24.00;93.30;;;;;;6300623;28;20296;-68
2021/08/08 15:19:16;;;;;;;2.30;2.10;;;23.80;93.40;;;;;;6301742;28;20226;-69
2021/08/08 15:22:20;;;;;;;2.83;2.60;;;23.60;93.70;;;;;;6301392;28;20235;-67
2021/08/08 15:25:23;;;;;;;2.80;2.33;;;23.50;93.80;;;;;;6302261;28;20574;-68
2021/08/08 15:28:27;;;;;;;2.30;2.10;;;23.40;94.10;;;;;;6302806;28;20702;-69
2021/08/08 15:31:31;;;;;;;2.20;2.00;;;23.40;94.10;;;;;;6302223;28;20234;-69
2021/08/08 15:34:34;;;;;;;2.57;2.37;;;23.30;94.30;;;;;;6302334;28;20226;-68
2021/08/08 15:37:37;;;;;;;2.73;2.37;;;23.30;94.40;;;;;;6302669;28;20234;-68
2021/08/08 15:40:40;;;;;;;2.20;1.70;;;23.40;94.30;;;;;;6302183;28;20235;-68
2021/08/08 15:44:01;;;;;;;2.67;2.40;;;23.40;94.30;;;;;;6301759;28;20557;-67
2021/08/08 15:47:04;;;;;;;7.50;2.33;;;23.30;94.40;;;;;;6302542;28;20223;-68
2021/08/08 15:50:10;;;;;;;3.20;2.77;;;23.30;94.40;;;;;;6302177;28;20241;-68
2021/08/08 15:53:13;;;;;;;2.33;2.13;;;23.40;94.50;;;;;;6302359;28;20265;-68
2021/08/08 15:56:16;;;;;;;3.27;2.80;;;23.40;94.50;;;;;;6301723;28;20230;-68
2021/08/08 15:59:21;;;;;;;2.83;2.63;;;23.40;94.60;;;;;;6301984;28;20241;-67